Time;durP1;ratioP1;P1;durP2;ratioP2;P2;SDS_P1;SDS_P2;PMS_P1;PMS_P2;Temp;Humidity;BMP_temperature;BMP_pressure;BME280_temperature;BME280_humidity;BME280_pressure;Samples;Min_cycle;Max_cycle;Signal;HPM_P1;HPM_P2
2022/06/09 00:01:35;;;;;;;8.45;5.15;;;;;;;14.36;54.54;99188.34;5100310;27;20130;-76
2022/06/09 00:04:11;;;;;;;13.25;6.07;;;;;;;14.34;54.89;99192.16;5098849;27;20042;-72
2022/06/09 00:06:44;;;;;;;9.38;5.53;;;;;;;14.29;55.24;99189.94;5100370;27;20046;-73
2022/06/09 00:09:09;;;;;;;11.02;4.97;;;;;;;14.21;55.27;99184.44;5118250;27;20370;-69
2022/06/09 00:11:39;;;;;;;18.20;5.18;;;;;;;14.18;55.37;99182.91;5117895;27;20523;-70
2022/06/09 00:14:06;;;;;;;8.95;4.10;;;;;;;14.14;54.89;99184.16;5117659;27;20062;-72
2022/06/09 00:16:31;;;;;;;9.30;5.32;;;;;;;14.11;56.11;99181.75;5100086;27;20416;-70
2022/06/09 00:18:56;;;;;;;7.43;4.57;;;;;;;14.07;55.07;99180.38;5118023;27;20405;-76
2022/06/09 00:21:22;;;;;;;10.88;4.65;;;;;;;14.03;55.75;99181.63;5099094;27;20401;-71
2022/06/09 00:23:47;;;;;;;7.95;4.90;;;;;;;14.00;55.46;99189.94;5117465;27;20073;-72
2022/06/09 00:26:12;;;;;;;7.35;4.70;;;;;;;13.97;56.24;99181.38;5098548;27;20080;-73
2022/06/09 00:28:37;;;;;;;10.65;4.32;;;;;;;13.94;55.50;99190.53;5096021;27;20105;-71
2022/06/09 00:31:02;;;;;;;8.98;4.70;;;;;;;13.88;56.00;99180.41;5102637;27;20053;-73
2022/06/09 00:33:26;;;;;;;10.00;5.15;;;;;;;13.86;56.15;99181.50;5094397;27;20058;-73
2022/06/09 00:35:51;;;;;;;8.45;4.50;;;;;;;13.84;57.06;99176.28;5104898;27;20081;-78
2022/06/09 00:38:16;;;;;;;7.55;4.53;;;;;;;13.81;56.31;99176.56;5088028;27;20078;-73
2022/06/09 00:40:41;;;;;;;9.68;4.65;;;;;;;13.79;56.45;99186.56;5077400;27;20051;-73
2022/06/09 00:43:06;;;;;;;9.55;4.47;;;;;;;13.78;57.03;99174.16;5115452;27;20053;-75
2022/06/09 00:45:42;;;;;;;10.68;5.00;;;;;;;13.84;57.19;99180.81;5117832;27;20053;-77
2022/06/09 00:48:40;;;;;;;9.68;4.90;;;;;;;13.85;56.13;99178.00;5098613;27;20373;-76
2022/06/09 00:51:26;;;;;;;12.27;4.18;;;;;;;13.81;55.50;99165.84;5102120;27;20098;-77
2022/06/09 00:54:17;;;;;;;9.38;4.68;;;;;;;13.75;56.02;99167.28;5084894;27;20042;-75
2022/06/09 00:56:58;;;;;;;10.77;5.45;;;;;;;13.79;56.17;99168.66;5088650;27;20051;-76
2022/06/09 00:59:26;;;;;;;12.45;5.40;;;;;;;13.73;56.61;99171.94;5101214;27;20130;-76
2022/06/09 01:01:51;;;;;;;6.85;4.68;;;;;;;13.72;56.65;99166.69;5117502;27;20568;-75
2022/06/09 01:04:17;;;;;;;10.50;5.18;;;;;;;13.73;57.05;99165.72;5118514;27;20513;-77
2022/06/09 01:07:08;;;;;;;10.63;4.28;;;;;;;13.82;56.76;99173.75;5119037;27;20043;-74
2022/06/09 01:09:34;;;;;;;10.15;4.60;;;;;;;13.73;55.59;99171.94;5085249;27;20046;-75
2022/06/09 01:11:59;;;;;;;6.80;4.65;;;;;;;13.71;55.21;99175.72;5088232;27;20039;-76
2022/06/09 01:14:28;;;;;;;15.57;5.65;;;;;;;13.74;55.52;99178.97;5097584;27;20057;-71
2022/06/09 01:17:18;;;;;;;9.98;5.25;;;;;;;13.80;56.00;99175.72;5078751;27;20042;-76
2022/06/09 01:19:49;;;;;;;11.05;4.45;;;;;;;13.79;54.98;99170.50;5097638;28;20043;-75
2022/06/09 01:22:38;;;;;;;7.28;4.60;;;;;;;13.80;54.78;99174.88;5079411;28;20077;-73
2022/06/09 01:25:17;;;;;;;15.23;6.00;;;;;;;13.89;52.42;99176.69;4992859;28;20477;-73
2022/06/09 01:28:00;;;;;;;8.73;4.47;;;;;;;13.85;54.83;99171.78;4997598;28;20383;-75
2022/06/09 01:30:42;;;;;;;9.32;5.05;;;;;;;13.92;54.73;99171.06;4996653;28;20057;-76
2022/06/09 01:33:14;;;;;;;10.48;5.38;;;;;;;13.90;55.07;99172.19;4980053;28;20035;-73
2022/06/09 01:35:50;;;;;;;10.15;5.47;;;;;;;13.92;54.72;99176.41;4995518;28;20053;-71
2022/06/09 01:38:15;;;;;;;11.60;4.95;;;;;;;13.90;53.86;99172.19;5011923;28;20048;-69
2022/06/09 01:40:40;;;;;;;8.18;4.85;;;;;;;13.91;54.68;99166.69;5016986;28;20048;-70
2022/06/09 01:43:06;;;;;;;13.75;6.30;;;;;;;13.93;55.06;99175.44;5026145;28;20958;-69
2022/06/09 01:45:55;;;;;;;7.47;4.70;;;;;;;14.06;55.21;99172.47;5014087;28;20048;-75
2022/06/09 01:48:25;;;;;;;9.27;4.63;;;;;;;14.05;55.27;99170.78;5031168;28;20052;-72
2022/06/09 01:51:07;;;;;;;8.60;4.68;;;;;;;14.14;54.73;99172.59;5024609;28;20048;-72
2022/06/09 01:53:43;;;;;;;9.65;4.78;;;;;;;14.17;54.58;99170.47;4984221;28;20045;-72
2022/06/09 01:56:30;;;;;;;10.73;4.82;;;;;;;14.20;54.45;99173.88;5010450;28;20088;-70
2022/06/09 01:59:06;;;;;;;7.70;4.70;;;;;;;14.30;53.77;99172.00;4991681;28;20057;-71
2022/06/09 02:01:38;;;;;;;12.75;5.07;;;;;;;14.34;53.29;99171.56;5022617;27;20118;-70
2022/06/09 02:04:10;;;;;;;10.32;5.10;;;;;;;14.40;54.11;99171.03;5101152;27;20038;-70
2022/06/09 02:06:36;;;;;;;9.80;4.85;;;;;;;14.44;54.02;99171.59;5083858;27;20042;-71
2022/06/09 02:09:03;;;;;;;10.60;5.10;;;;;;;14.52;54.01;99169.84;5083216;27;20070;-70
2022/06/09 02:11:29;;;;;;;8.50;4.82;;;;;;;14.57;54.35;99164.03;5098228;27;20502;-72
2022/06/09 02:13:56;;;;;;;11.73;5.40;;;;;;;14.65;53.95;99172.22;5099229;27;20054;-70
2022/06/09 02:16:22;;;;;;;10.13;6.07;;;;;;;14.72;53.65;99164.41;5097285;27;20058;-72
2022/06/09 02:19:06;;;;;;;9.25;5.25;;;;;;;14.83;53.22;99164.22;5103716;27;20068;-74
2022/06/09 02:21:34;;;;;;;8.23;4.47;;;;;;;14.93;53.63;99169.53;5119576;27;20086;-71
2022/06/09 02:24:00;;;;;;;15.02;5.50;;;;;;;15.01;53.89;99172.34;5101127;27;20500;-73
2022/06/09 02:26:25;;;;;;;10.68;5.40;;;;;;;15.09;53.58;99161.69;5100445;27;20038;-73
2022/06/09 02:28:50;;;;;;;13.65;5.45;;;;;;;15.19;52.62;99167.84;5117439;27;20065;-73
2022/06/09 02:31:17;;;;;;;12.90;6.13;;;;;;;15.29;52.98;99178.53;5099748;27;20048;-71
2022/06/09 02:33:42;;;;;;;10.70;5.32;;;;;;;15.38;53.40;99178.47;5082036;27;20053;-73
2022/06/09 02:36:07;;;;;;;16.52;6.22;;;;;;;15.47;52.94;99169.50;5099782;27;20043;-71
2022/06/09 02:38:32;;;;;;;11.30;4.72;;;;;;;15.57;52.94;99182.91;5082684;27;20034;-70
2022/06/09 02:40:56;;;;;;;13.10;5.70;;;;;;;15.68;52.45;99179.16;5118147;27;20050;-70
2022/06/09 02:43:23;;;;;;;10.52;5.45;;;;;;;15.80;52.26;99183.31;5100197;27;20469;-73
2022/06/09 02:45:48;;;;;;;13.77;5.78;;;;;;;15.91;51.77;99181.19;5083232;27;20042;-71
2022/06/09 02:48:13;;;;;;;10.32;5.47;;;;;;;16.05;51.99;99184.34;5083161;27;20045;-71
2022/06/09 02:50:39;;;;;;;10.77;6.00;;;;;;;16.18;51.27;99180.25;5118186;27;20047;-73
2022/06/09 02:53:05;;;;;;;14.68;5.57;;;;;;;16.31;51.15;99182.53;5099805;27;20042;-69
2022/06/09 02:55:30;;;;;;;15.95;5.55;;;;;;;16.43;50.65;99183.13;5119184;27;20083;-65
2022/06/09 02:57:54;;;;;;;11.48;6.32;;;;;;;16.56;50.24;99186.25;5118798;27;20042;-67
2022/06/09 03:00:19;;;;;;;12.18;5.82;;;;;;;16.67;49.96;99183.31;5119504;27;20043;-67
2022/06/09 03:03:03;;;;;;;10.82;5.80;;;;;;;16.81;49.43;99185.44;5120135;27;20074;-68
2022/06/09 03:05:29;;;;;;;12.35;5.13;;;;;;;16.84;50.11;99182.38;5100660;27;20149;-68
2022/06/09 03:07:54;;;;;;;15.73;6.55;;;;;;;16.91;50.01;99188.84;5100335;27;20484;-71
2022/06/09 03:10:20;;;;;;;12.73;6.35;;;;;;;17.05;49.60;99179.28;5126371;27;20070;-66
2022/06/09 03:12:45;;;;;;;9.70;4.93;;;;;;;17.21;49.49;99175.81;5129856;27;20098;-65
2022/06/09 03:15:11;;;;;;;13.88;6.68;;;;;;;17.40;48.44;99170.16;5121407;27;20074;-65
2022/06/09 03:17:37;;;;;;;11.60;6.95;;;;;;;17.58;48.17;99176.28;5065616;27;20034;-71
2022/06/09 03:20:05;;;;;;;14.30;6.63;;;;;;;17.76;48.25;99177.00;5117737;27;20064;-68
2022/06/09 03:22:30;;;;;;;14.05;5.63;;;;;;;17.96;48.78;99172.13;5099159;27;20042;-68
2022/06/09 03:24:55;;;;;;;10.18;6.82;;;;;;;18.15;48.84;99176.34;5117144;27;20091;-69
2022/06/09 03:27:20;;;;;;;13.48;6.38;;;;;;;18.31;48.02;99173.63;5117229;27;20038;-70
2022/06/09 03:29:44;;;;;;;13.20;6.25;;;;;;;18.47;48.04;99176.31;5096179;27;20038;-68
2022/06/09 03:32:09;;;;;;;12.20;6.30;;;;;;;18.66;47.73;99185.91;5098042;27;20058;-68
2022/06/09 03:34:34;;;;;;;16.85;7.75;;;;;;;18.86;44.42;99183.66;5097526;27;20039;-67
2022/06/09 03:36:59;;;;;;;9.95;7.35;;;;;;;19.06;42.89;99187.69;5091354;27;20049;-67
2022/06/09 03:39:24;;;;;;;11.98;6.25;;;;;;;19.28;41.36;99180.66;5128378;27;20034;-68
2022/06/09 03:41:48;;;;;;;11.68;6.30;;;;;;;19.48;40.98;99178.34;5118693;27;20037;-68
2022/06/09 03:44:13;;;;;;;11.55;6.68;;;;;;;19.63;40.19;99173.91;5123805;27;20058;-72
2022/06/09 03:46:38;;;;;;;13.82;7.40;;;;;;;19.76;39.11;99179.53;5125538;27;20042;-69
2022/06/09 03:49:04;;;;;;;20.90;8.55;;;;;;;19.90;39.25;99181.47;5123943;27;20053;-70
2022/06/09 03:51:29;;;;;;;12.10;6.60;;;;;;;20.01;38.79;99179.38;5124842;27;20038;-70
2022/06/09 03:53:53;;;;;;;18.48;6.63;;;;;;;20.14;39.13;99193.13;5105184;27;20091;-69
2022/06/09 03:56:20;;;;;;;14.65;7.43;;;;;;;20.29;38.58;99189.47;5068181;27;20498;-69
2022/06/09 03:58:45;;;;;;;15.40;6.80;;;;;;;20.41;38.39;99189.91;5079113;27;20043;-70
2022/06/09 04:01:17;;;;;;;13.13;6.43;;;;;;;20.57;38.47;99188.88;5061440;27;20070;-70
2022/06/09 04:03:43;;;;;;;9.13;6.25;;;;;;;20.73;38.15;99187.88;5077391;27;20039;-70
2022/06/09 04:06:21;;;;;;;11.45;6.50;;;;;;;20.95;37.72;99192.38;5078032;27;20438;-71
2022/06/09 04:08:48;;;;;;;8.43;5.43;;;;;;;21.07;37.17;99187.34;5097117;27;20053;-70
2022/06/09 04:11:13;;;;;;;14.35;6.85;;;;;;;21.22;36.92;99182.78;5098135;27;20413;-70
2022/06/09 04:13:38;;;;;;;16.88;7.47;;;;;;;21.36;36.76;99185.44;5097729;27;20070;-71
2022/06/09 04:16:06;;;;;;;15.00;7.25;;;;;;;21.52;36.10;99178.13;5098682;27;20087;-70
2022/06/09 04:18:31;;;;;;;14.00;7.30;;;;;;;21.67;35.80;99177.03;5098015;27;20538;-71
2022/06/09 04:20:55;;;;;;;12.35;6.70;;;;;;;21.83;35.44;99178.69;5062969;27;20655;-70
2022/06/09 04:23:20;;;;;;;13.38;7.28;;;;;;;21.98;35.44;99174.09;5097782;27;20598;-71
2022/06/09 04:25:45;;;;;;;16.27;6.88;;;;;;;22.14;35.56;99182.97;5080678;27;20076;-70
2022/06/09 04:28:10;;;;;;;14.15;7.50;;;;;;;22.28;35.78;99180.19;5081429;27;20050;-70
2022/06/09 04:30:35;;;;;;;14.07;7.15;;;;;;;22.45;35.36;99173.47;5100533;27;20102;-70
2022/06/09 04:32:59;;;;;;;16.27;7.38;;;;;;;22.65;35.92;99178.19;5098744;27;20523;-70
2022/06/09 04:35:25;;;;;;;13.13;7.15;;;;;;;22.87;35.19;99187.16;5100760;27;20091;-70
2022/06/09 04:38:03;;;;;;;17.83;7.07;;;;;;;23.14;34.99;99175.38;5119089;27;20043;-69
2022/06/09 04:40:34;;;;;;;12.00;6.82;;;;;;;23.46;34.75;99182.84;5098079;27;20046;-71
2022/06/09 04:43:00;;;;;;;19.67;8.00;;;;;;;23.76;34.13;99179.84;5117615;27;20716;-72
2022/06/09 04:45:25;;;;;;;19.90;6.78;;;;;;;24.11;33.50;99181.38;5117455;27;20046;-70
2022/06/09 04:47:49;;;;;;;12.27;7.03;;;;;;;24.50;32.63;99183.28;5117098;27;20039;-70
2022/06/09 04:50:16;;;;;;;13.30;6.45;;;;;;;24.79;32.12;99189.34;5116694;27;20083;-69
2022/06/09 04:52:42;;;;;;;16.00;7.07;;;;;;;25.08;31.72;99193.50;5116008;27;20460;-71
2022/06/09 04:55:07;;;;;;;12.88;6.90;;;;;;;25.32;31.10;99190.94;5097572;27;20078;-70
2022/06/09 04:57:32;;;;;;;13.77;6.97;;;;;;;25.56;30.33;99194.81;5116040;27;20050;-69
2022/06/09 04:59:57;;;;;;;14.07;7.85;;;;;;;25.87;30.04;99196.78;5116206;27;20043;-71
2022/06/09 05:02:22;;;;;;;15.13;7.07;;;;;;;26.28;29.59;99192.78;5115635;27;20382;-69
2022/06/09 05:04:47;;;;;;;10.50;6.88;;;;;;;26.67;29.23;99191.59;5116000;27;20045;-69
2022/06/09 05:07:11;;;;;;;11.55;6.70;;;;;;;27.05;28.48;99202.41;5116439;27;20038;-69
2022/06/09 05:09:36;;;;;;;17.60;7.75;;;;;;;27.37;27.67;99200.38;5081218;27;20046;-69
2022/06/09 05:12:01;;;;;;;13.48;7.18;;;;;;;27.65;27.37;99197.94;5080422;27;20122;-70
2022/06/09 05:14:26;;;;;;;11.88;7.88;;;;;;;27.87;27.21;99190.06;5096745;27;20062;-69
2022/06/09 05:16:51;;;;;;;17.17;7.45;;;;;;;28.11;26.81;99199.19;5115632;27;20052;-69
2022/06/09 05:19:16;;;;;;;17.58;6.57;;;;;;;28.36;26.86;99205.38;5097148;27;20039;-69
2022/06/09 05:21:40;;;;;;;16.95;7.07;;;;;;;28.62;26.44;99197.78;5097088;27;20043;-68
2022/06/09 05:24:06;;;;;;;14.38;6.47;;;;;;;28.84;26.09;99204.41;5115804;27;20042;-69
2022/06/09 05:26:31;;;;;;;12.32;6.22;;;;;;;28.96;27.26;99197.00;5062989;27;20437;-71
2022/06/09 05:28:56;;;;;;;11.18;6.38;;;;;;;29.13;26.83;99202.56;5115974;27;20377;-70
2022/06/09 05:31:21;;;;;;;8.88;5.78;;;;;;;29.34;27.45;99198.38;5080494;27;20201;-68
2022/06/09 05:33:45;;;;;;;26.50;7.03;;;;;;;29.53;26.62;99194.44;5096918;27;20035;-68
2022/06/09 05:36:10;;;;;;;9.93;6.20;;;;;;;29.77;25.89;99192.44;5114117;27;20417;-68
2022/06/09 05:46:46;;;;;;;16.25;6.70;;;;;;;30.32;25.21;99195.41;5115359;27;20065;-67
2022/06/09 05:49:11;;;;;;;12.88;6.28;;;;;;;30.55;24.04;99202.72;5080335;27;20074;-69
2022/06/09 05:51:36;;;;;;;12.73;7.20;;;;;;;30.90;24.40;99195.03;5115656;27;20073;-68
2022/06/09 05:54:02;;;;;;;9.23;6.93;;;;;;;31.36;23.42;99196.53;5096738;27;20046;-69
2022/06/09 05:56:27;;;;;;;10.13;5.82;;;;;;;31.80;21.53;99185.53;5115209;27;20051;-69
2022/06/09 05:58:51;;;;;;;9.38;5.90;;;;;;;32.34;20.74;99188.31;5115475;27;20083;-70
2022/06/09 06:01:16;;;;;;;9.93;5.35;;;;;;;33.05;19.97;99191.66;5079289;27;20087;-70
2022/06/09 06:03:42;;;;;;;16.73;6.20;;;;;;;33.78;18.71;99189.81;5115599;27;20107;-69
2022/06/09 06:08:50;;;;;;;7.47;4.93;;;;;;;34.85;17.02;99186.13;5115061;27;20110;-70
2022/06/09 06:11:15;;;;;;;8.85;5.40;;;;;;;35.08;16.54;99192.19;5096492;27;20039;-71
2022/06/09 06:13:40;;;;;;;6.63;4.53;;;;;;;35.36;16.14;99183.25;5115395;27;20046;-71
2022/06/09 06:16:05;;;;;;;6.93;4.70;;;;;;;35.80;16.34;99188.06;5115136;27;20382;-72
2022/06/09 06:18:30;;;;;;;11.23;5.32;;;;;;;36.29;15.00;99190.84;5096405;27;20058;-71
2022/06/09 06:20:56;;;;;;;8.05;5.07;;;;;;;36.80;14.62;99194.06;5096099;27;20050;-71
2022/06/09 06:23:20;;;;;;;12.27;5.05;;;;;;;37.30;14.59;99195.53;5096327;27;20157;-72
2022/06/09 06:25:45;;;;;;;7.18;4.30;;;;;;;37.75;13.73;99196.94;5115349;27;20077;-71
2022/06/09 06:28:10;;;;;;;4.80;4.28;;;;;;;38.14;13.99;99187.53;5118398;27;20050;-70
2022/06/09 06:30:35;;;;;;;9.07;4.63;;;;;;;38.62;13.52;99193.72;5100034;27;20133;-72
2022/06/09 06:32:59;;;;;;;5.55;4.28;;;;;;;39.18;13.21;99189.94;5118366;27;20050;-70
2022/06/09 06:35:24;;;;;;;4.03;3.65;;;;;;;39.62;12.42;99189.34;5117665;27;20049;-69
2022/06/09 06:37:49;;;;;;;6.30;3.47;;;;;;;39.87;11.62;99188.84;5118852;27;20061;-70
2022/06/09 06:40:15;;;;;;;8.27;4.25;;;;;;;40.14;11.99;99193.53;5100003;27;20483;-71
2022/06/09 06:42:40;;;;;;;3.70;3.50;;;;;;;40.46;11.53;99192.50;5099948;27;20038;-71
2022/06/09 06:45:06;;;;;;;5.15;3.85;;;;;;;40.87;11.70;99192.31;5118455;27;20070;-70
2022/06/09 06:47:31;;;;;;;5.90;4.30;;;;;;;41.28;11.15;99194.03;5099572;27;20519;-71
2022/06/09 06:49:56;;;;;;;8.13;6.00;;;;;;;41.72;11.67;99197.84;5100139;27;20493;-71
2022/06/09 06:52:20;;;;;;;12.43;7.70;;;;;;;42.06;11.55;99199.91;5099247;27;20061;-70
2022/06/09 06:54:45;;;;;;;7.72;5.35;;;;;;;42.43;10.92;99204.06;5118446;27;20050;-70
2022/06/09 06:57:10;;;;;;;11.48;6.22;;;;;;;42.85;10.64;99196.78;5118356;27;20520;-71
2022/06/09 06:59:35;;;;;;;10.80;8.45;;;;;;;43.54;10.08;99204.97;5118519;27;20560;-70
2022/06/09 07:02:00;;;;;;;14.13;8.32;;;;;;;44.19;10.14;99197.97;5118426;27;20090;-71
2022/06/09 07:04:25;;;;;;;8.85;6.57;;;;;;;44.63;9.97;99196.44;5099687;27;20206;-70
2022/06/09 07:06:50;;;;;;;6.97;6.32;;;;;;;44.86;9.56;99195.75;5118866;27;20115;-71
2022/06/09 07:09:15;;;;;;;8.27;6.00;;;;;;;44.49;9.46;99185.50;5099195;27;20046;-72
2022/06/09 07:11:40;;;;;;;7.18;6.45;;;;;;;44.71;9.74;99181.47;5099693;27;20046;-70
2022/06/09 07:14:05;;;;;;;14.23;6.28;;;;;;;44.85;8.90;99185.66;5098991;27;20066;-70
2022/06/09 07:16:29;;;;;;;13.52;6.55;;;;;;;45.16;9.83;99187.16;5099561;27;20504;-69
2022/06/09 07:18:54;;;;;;;11.88;8.95;;;;;;;45.67;9.14;99187.66;5117370;27;20461;-70
2022/06/09 07:21:21;;;;;;;7.28;6.53;;;;;;;46.15;8.88;99193.25;5100084;27;20085;-69
2022/06/09 07:23:46;;;;;;;10.48;7.65;;;;;;;46.51;8.68;99199.94;5117454;27;20058;-68
2022/06/09 07:26:12;;;;;;;10.63;7.45;;;;;;;46.95;8.20;99193.19;5117525;27;20054;-71
2022/06/09 07:28:37;;;;;;;7.68;6.88;;;;;;;47.37;8.20;99195.53;5098882;27;20034;-71
2022/06/09 07:31:02;;;;;;;8.35;7.53;;;;;;;47.45;7.57;99193.69;5118803;27;20153;-69
2022/06/09 07:33:31;;;;;;;8.40;7.70;;;;;;;47.46;8.02;99196.16;5100276;27;20058;-68
2022/06/09 07:35:57;;;;;;;9.57;8.75;;;;;;;47.69;7.71;99191.47;5099488;27;20104;-69
2022/06/09 07:38:24;;;;;;;9.43;8.48;;;;;;;47.78;7.80;99193.31;5100169;27;20034;-71
2022/06/09 07:40:49;;;;;;;11.35;10.48;;;;;;;48.52;7.69;99197.03;5100403;27;20519;-70
2022/06/09 07:43:14;;;;;;;9.93;8.88;;;;;;;49.47;6.26;99195.19;5120192;27;20039;-70
2022/06/09 07:45:41;;;;;;;9.52;8.73;;;;;;;49.80;5.95;99198.16;5119325;27;20413;-72
2022/06/09 07:48:06;;;;;;;11.77;11.00;;;;;;;50.14;6.30;99195.44;5117486;27;20516;-70
2022/06/09 07:50:33;;;;;;;16.73;15.25;;;;;;;50.74;6.90;99201.91;5098525;27;20209;-70
2022/06/09 07:52:58;;;;;;;25.10;22.67;;;;;;;51.36;5.63;99201.34;5117471;27;20607;-71
2022/06/09 07:55:24;;;;;;;19.08;17.38;;;;;;;51.78;5.86;99200.88;5098516;27;20053;-70
2022/06/09 07:57:49;;;;;;;17.13;15.40;;;;;;;51.91;5.49;99201.41;5081783;27;20513;-72
2022/06/09 08:00:14;;;;;;;16.33;14.73;;;;;;;51.46;5.10;99203.47;5098944;27;20370;-71
2022/06/09 08:02:41;;;;;;;18.20;16.95;;;;;;;51.67;5.70;99203.66;5116880;27;20038;-70
2022/06/09 08:05:07;;;;;;;24.25;22.27;;;;;;;52.03;5.74;99201.88;5098781;27;20572;-72
2022/06/09 08:07:32;;;;;;;19.00;17.48;;;;;;;52.46;5.39;99199.25;5080898;27;20042;-69
2022/06/09 08:09:56;;;;;;;18.38;17.27;;;;;;;52.80;5.57;99202.66;5117095;27;20050;-69
2022/06/09 08:12:21;;;;;;;17.30;16.20;;;;;;;53.07;5.44;99201.06;5098706;27;20917;-69
2022/06/09 08:14:46;;;;;;;21.65;20.25;;;;;;;53.16;5.13;99204.38;5081658;27;20061;-68
2022/06/09 08:17:11;;;;;;;23.35;21.77;;;;;;;53.77;4.97;99205.19;5098410;27;20035;-69
2022/06/09 08:19:36;;;;;;;23.98;22.40;;;;;;;54.39;4.84;99198.94;5080980;27;20043;-69
2022/06/09 08:22:01;;;;;;;28.85;27.27;;;;;;;54.70;4.75;99195.13;5116494;27;20034;-69
2022/06/09 08:24:26;;;;;;;38.17;35.38;;;;;;;54.80;4.77;99201.19;5116444;27;20122;-70
2022/06/09 08:26:50;;;;;;;58.42;53.33;;;;;;;54.78;5.15;99195.06;5116611;27;20035;-71
2022/06/09 08:29:15;;;;;;;35.30;33.28;;;;;;;54.81;4.29;99194.28;5097718;27;20042;-69
2022/06/09 08:31:41;;;;;;;27.30;25.65;;;;;;;54.75;4.02;99195.94;5116057;27;20670;-70
2022/06/09 08:34:06;;;;;;;25.30;24.00;;;;;;;54.70;4.11;99191.47;5116643;27;20045;-70
2022/06/09 08:36:30;;;;;;;24.70;23.38;;;;;;;54.63;4.69;99188.66;5097893;27;20051;-70
2022/06/09 08:38:55;;;;;;;29.83;28.38;;;;;;;54.45;4.37;99194.41;5117292;27;20042;-69
2022/06/09 08:41:35;;;;;;;28.85;27.05;;;;;;;54.50;4.49;99194.03;5116743;27;20043;-70
2022/06/09 08:44:15;;;;;;;62.38;56.92;;;;;;;54.01;4.92;99177.88;5116336;27;20034;-71
2022/06/09 08:46:53;;;;;;;43.03;40.22;;;;;;;54.65;4.70;99187.00;5116388;27;20496;-70
2022/06/09 08:49:50;;;;;;;34.13;32.00;;;;;;;55.90;4.26;99198.28;5097292;27;20043;-70
2022/06/09 08:52:33;;;;;;;63.33;58.60;;;;;;;56.29;4.40;99222.81;4979130;28;20411;-71
2022/06/09 08:54:58;;;;;;;42.92;40.47;;;;;;;56.25;4.09;99219.19;5011085;28;20059;-71
2022/06/09 08:57:31;;;;;;;51.25;48.13;;;;;;;56.71;4.57;99222.31;5012402;28;20122;-72
2022/06/09 08:59:57;;;;;;;56.80;53.33;;;;;;;56.70;4.14;99217.81;5012744;28;20087;-72
2022/06/09 09:02:42;;;;;;;73.57;68.47;;;;;;;56.95;4.15;99219.50;5012919;28;20551;-72
2022/06/09 09:05:14;;;;;;;54.33;51.60;;;;;;;56.79;4.27;99206.63;5012736;28;20045;-72
2022/06/09 09:07:51;;;;;;;54.22;51.15;;;;;;;57.14;3.81;99213.09;5012555;28;20040;-70
2022/06/09 09:10:26;;;;;;;55.65;53.00;;;;;;;57.26;3.46;99211.66;5012572;28;20055;-71
2022/06/09 09:13:09;;;;;;;58.75;55.03;;;;;;;57.19;3.98;99177.41;4979419;28;20555;-71
2022/06/09 09:15:41;;;;;;;64.35;60.85;;;;;;;57.35;4.20;99169.75;5012525;28;20059;-71
2022/06/09 09:18:28;;;;;;;68.03;63.95;;;;;;;57.98;3.72;99198.53;5012253;28;20040;-71
2022/06/09 09:21:05;;;;;;;62.22;59.00;;;;;;;58.36;3.72;99201.09;5012239;28;20115;-71
2022/06/09 09:23:38;;;;;;;66.57;63.58;;;;;;;58.73;3.31;99208.47;5012192;28;20037;-71
2022/06/09 09:26:17;;;;;;;81.20;77.28;;;;;;;58.77;3.68;99200.63;5012434;28;20155;-71
2022/06/09 09:28:49;;;;;;;83.00;78.68;;;;;;;59.04;3.74;99192.53;5064980;28;20395;-72
2022/06/09 09:31:16;;;;;;;97.72;92.03;;;;;;;59.11;3.87;99189.53;5077247;28;20508;-71
2022/06/09 09:33:41;;;;;;;82.05;78.05;;;;;;;59.33;3.66;99201.31;5095280;28;20298;-71
2022/06/09 09:36:20;;;;;;;83.60;79.68;;;;;;;59.92;3.59;99197.31;5076925;28;20074;-72
2022/06/09 09:38:53;;;;;;;112.43;105.35;;;;;;;59.98;3.72;99195.50;5102057;28;20128;-72
2022/06/09 09:41:27;;;;;;;135.80;126.05;;;;;;;60.32;3.23;99197.00;5108947;28;20043;-70
2022/06/09 09:43:54;;;;;;;101.88;96.47;;;;;;;59.84;3.23;99185.16;5108613;28;20043;-71
2022/06/09 09:46:31;;;;;;;124.50;116.25;;;;;;;60.26;3.08;99202.53;5097384;28;20054;-70
2022/06/09 09:48:59;;;;;;;93.72;89.00;;;;;;;59.62;3.49;99183.31;5080251;28;20507;-70
2022/06/09 09:51:37;;;;;;;101.10;96.00;;;;;;;60.21;3.42;99177.97;5096208;28;20542;-70
2022/06/09 09:54:32;;;;;;;99.82;94.95;;;;;;;60.77;3.03;99171.75;5095566;28;20047;-71
2022/06/09 09:57:21;;;;;;;102.18;97.57;;;;;;;60.58;3.03;99176.44;5076698;28;20071;-69
2022/06/09 09:59:58;;;;;;;126.85;119.68;;;;;;;60.83;3.24;99164.16;5094514;27;20043;-71
2022/06/09 10:08:36;;;;;;;;;;;;;;;62.18;2.95;99152.84;5083931;27;20058;-71
2022/06/09 10:11:53;;;;;;;129.18;122.93;;;;;;;60.84;3.04;99148.47;5105582;27;19979;-71
2022/06/09 10:13:49;;;;;;;136.70;130.25;;;;;;;60.70;3.18;99137.38;5087694;27;20391;-71
2022/06/09 10:16:15;;;;;;;144.55;137.23;;;;;;;60.47;2.79;99135.63;5105991;27;20498;-73
2022/06/09 10:18:44;;;;;;;119.18;113.78;;;;;;;60.45;2.73;99145.97;5087390;27;20475;-72
2022/06/09 10:21:12;;;;;;;127.35;121.30;;;;;;;60.26;2.87;99128.47;5087346;27;20439;-71
2022/06/09 10:23:46;;;;;;;132.60;126.10;;;;;;;60.84;2.89;99141.91;5108694;27;20034;-72
2022/06/09 10:26:17;;;;;;;136.88;130.02;;;;;;;60.89;3.09;99149.97;5102378;27;20174;-72
2022/06/09 10:28:43;;;;;;;136.75;130.25;;;;;;;60.55;2.79;99130.47;5063767;27;20569;-71
2022/06/09 10:31:12;;;;;;;118.20;112.68;;;;;;;59.07;3.42;99098.88;5099554;27;20051;-71
2022/06/09 10:34:03;;;;;;;90.00;85.35;;;;;;;55.72;5.00;99077.53;5099057;27;20045;-71
2022/06/09 10:36:49;;;;;;;43.22;40.50;;;;;;;51.59;5.96;99065.53;5081327;27;20074;-73
2022/06/09 10:39:41;;;;;;;24.88;23.38;;;;;;;48.35;7.55;99056.84;5098884;27;20046;-71
2022/06/09 10:42:21;;;;;;;;;;;;;;;46.10;8.02;99046.94;5102877;27;20058;-72
2022/06/09 10:45:21;;;;;;;11.95;11.15;;;;;;;42.38;10.51;99050.91;5083880;27;19980;-71
2022/06/09 10:57:23;;;;;;;11.45;7.07;;;;;;;36.31;16.29;99033.16;4964503;28;20038;-70
2022/06/09 11:00:03;;;;;;;15.15;8.90;;;;;;;35.55;16.71;99029.03;4975729;28;20127;-70
2022/06/09 11:02:31;;;;;;;13.63;7.57;;;;;;;34.86;17.02;99032.69;4982565;28;20057;-70
2022/06/09 11:04:57;;;;;;;6.15;5.40;;;;;;;34.20;18.12;99021.69;4982148;28;20073;-70
2022/06/09 11:07:25;;;;;;;10.43;6.55;;;;;;;33.76;18.17;99021.44;4981602;28;20132;-70
2022/06/09 11:10:22;;;;;;;9.80;6.15;;;;;;;33.25;19.48;99022.44;4982386;28;20072;-68
2022/06/09 11:13:40;;;;;;;5.05;4.57;;;;;;;33.04;19.31;99024.28;4923435;28;20410;-69
2022/06/09 11:16:21;;;;;;;8.43;7.25;;;;;;;32.57;19.58;99030.66;4904901;29;20751;-71
2022/06/09 11:19:06;;;;;;;9.60;5.63;;;;;;;32.28;19.95;99026.59;4923831;29;20070;-69
2022/06/09 11:21:34;;;;;;;9.98;4.50;;;;;;;31.74;20.13;99026.69;4906803;29;20190;-67
2022/06/09 11:24:05;;;;;;;9.50;5.68;;;;;;;31.62;22.17;99025.97;4923235;29;20051;-68
2022/06/09 11:26:39;;;;;;;6.80;4.35;;;;;;;31.28;20.48;99006.91;4920698;29;20112;-72
2022/06/09 11:29:15;;;;;;;;;;;;;;;31.56;20.03;99027.03;4961721;28;20058;-68
2022/06/09 11:32:02;;;;;;;9.80;5.43;;;;;;;30.96;22.60;99016.97;4976941;28;20295;-66
2022/06/09 11:34:42;;;;;;;13.90;6.05;;;;;;;30.78;22.61;99017.31;4968046;28;20466;-66
2022/06/09 11:37:24;;;;;;;8.30;5.57;;;;;;;30.67;21.84;99022.69;4969084;28;20632;-67
2022/06/09 11:39:49;;;;;;;13.52;8.73;;;;;;;30.35;22.92;99016.16;4984631;28;20076;-75
2022/06/09 11:42:29;;;;;;;9.73;6.28;;;;;;;30.34;22.22;99017.25;4966346;28;20046;-70
2022/06/09 11:44:55;;;;;;;9.27;5.78;;;;;;;30.08;23.09;99006.94;4998982;28;20048;-70
2022/06/09 11:47:28;;;;;;;19.48;11.50;;;;;;;30.02;23.99;99011.53;5000436;27;20056;-71
2022/06/09 11:49:57;;;;;;;10.05;5.72;;;;;;;29.83;22.44;99005.41;5099640;27;20054;-71
2022/06/09 11:52:31;;;;;;;13.43;8.95;;;;;;;29.70;23.36;99019.47;5103265;27;20049;-70
2022/06/09 11:54:58;;;;;;;;;;;;;;;29.85;23.82;99017.00;5102167;27;20135;-70
2022/06/09 11:57:43;;;;;;;7.90;5.88;;;;;;;29.69;23.64;99009.56;5098645;27;19916;-71
2022/06/09 12:00:21;;;;;;;8.55;6.22;;;;;;;29.56;22.79;99013.50;5081955;28;20046;-71
2022/06/09 12:03:08;;;;;;;5.93;4.15;;;;;;;29.21;23.14;99016.38;5080808;28;20148;-70
2022/06/09 12:05:45;;;;;;;4.80;4.30;;;;;;;29.27;23.34;99009.88;5082547;28;20050;-69
2022/06/09 12:08:21;;;;;;;5.57;4.40;;;;;;;29.22;23.44;99009.81;5081504;28;20438;-69